sensor_id;sensor_type;location;lat;lon;timestamp;temperature;humidity
12089;DHT22;6107;49.078;8.578;2023-04-24T00:00:33;12.00;99.90
12089;DHT22;6107;49.078;8.578;2023-04-24T00:02:58;12.00;99.90
12089;DHT22;6107;49.078;8.578;2023-04-24T00:05:24;12.10;99.90
12089;DHT22;6107;49.078;8.578;2023-04-24T00:07:50;12.20;99.90
12089;DHT22;6107;49.078;8.578;2023-04-24T00:10:18;12.20;99.90
12089;DHT22;6107;49.078;8.578;2023-04-24T00:12:44;12.30;99.90
12089;DHT22;6107;49.078;8.578;2023-04-24T00:15:10;12.10;99.90
12089;DHT22;6107;49.078;8.578;2023-04-24T00:17:36;12.00;99.90
12089;DHT22;6107;49.078;8.578;2023-04-24T00:20:01;11.80;99.90
12089;DHT22;6107;49.078;8.578;2023-04-24T00:22:30;11.70;99.90
12089;DHT22;6107;49.078;8.578;2023-04-24T00:24:56;11.90;99.90
12089;DHT22;6107;49.078;8.578;2023-04-24T00:27:21;12.10;99.90
12089;DHT22;6107;49.078;8.578;2023-04-24T00:29:47;11.80;99.90
12089;DHT22;6107;49.078;8.578;2023-04-24T00:32:13;11.90;99.90
12089;DHT22;6107;49.078;8.578;2023-04-24T00:34:39;12.00;99.90
12089;DHT22;6107;49.078;8.578;2023-04-24T00:37:04;12.20;99.90
12089;DHT22;6107;49.078;8.578;2023-04-24T00:39:30;12.30;99.90
12089;DHT22;6107;49.078;8.578;2023-04-24T00:41:56;12.30;99.90
12089;DHT22;6107;49.078;8.578;2023-04-24T00:44:22;12.30;99.90
12089;DHT22;6107;49.078;8.578;2023-04-24T00:46:48;12.40;99.90
12089;DHT22;6107;49.078;8.578;2023-04-24T00:49:18;12.40;99.90
12089;DHT22;6107;49.078;8.578;2023-04-24T00:51:44;12.30;99.90
12089;DHT22;6107;49.078;8.578;2023-04-24T00:54:11;12.30;99.90
12089;DHT22;6107;49.078;8.578;2023-04-24T00:56:37;12.30;99.90
12089;DHT22;6107;49.078;8.578;2023-04-24T00:59:03;12.30;99.90
12089;DHT22;6107;49.078;8.578;2023-04-24T01:01:29;12.30;99.90
12089;DHT22;6107;49.078;8.578;2023-04-24T01:03:56;12.40;99.90
12089;DHT22;6107;49.078;8.578;2023-04-24T01:06:23;12.30;99.90
12089;DHT22;6107;49.078;8.578;2023-04-24T01:08:52;12.30;99.90
12089;DHT22;6107;49.078;8.578;2023-04-24T01:11:18;12.30;99.90
12089;DHT22;6107;49.078;8.578;2023-04-24T01:13:43;12.30;99.90
12089;DHT22;6107;49.078;8.578;2023-04-24T01:16:10;12.20;99.90
12089;DHT22;6107;49.078;8.578;2023-04-24T01:18:35;12.30;99.90
12089;DHT22;6107;49.078;8.578;2023-04-24T01:21:04;12.30;99.90
12089;DHT22;6107;49.078;8.578;2023-04-24T01:23:29;12.20;99.90
12089;DHT22;6107;49.078;8.578;2023-04-24T01:25:55;12.10;99.90
12089;DHT22;6107;49.078;8.578;2023-04-24T01:28:21;12.10;99.90
12089;DHT22;6107;49.078;8.578;2023-04-24T01:30:47;12.20;99.90
12089;DHT22;6107;49.078;8.578;2023-04-24T01:33:13;12.20;99.90
12089;DHT22;6107;49.078;8.578;2023-04-24T01:35:39;12.20;99.90
12089;DHT22;6107;49.078;8.578;2023-04-24T01:38:05;12.30;99.90
12089;DHT22;6107;49.078;8.578;2023-04-24T01:40:31;12.30;99.90
12089;DHT22;6107;49.078;8.578;2023-04-24T01:42:57;12.40;99.90
12089;DHT22;6107;49.078;8.578;2023-04-24T01:45:23;12.40;99.90
12089;DHT22;6107;49.078;8.578;2023-04-24T01:47:49;12.30;99.90
12089;DHT22;6107;49.078;8.578;2023-04-24T01:50:15;12.30;99.90
12089;DHT22;6107;49.078;8.578;2023-04-24T01:52:41;12.40;99.90
12089;DHT22;6107;49.078;8.578;2023-04-24T01:55:07;12.40;99.90
12089;DHT22;6107;49.078;8.578;2023-04-24T01:57:33;12.40;99.90
12089;DHT22;6107;49.078;8.578;2023-04-24T01:59:59;12.40;99.90
12089;DHT22;6107;49.078;8.578;2023-04-24T02:02:25;12.30;99.90
12089;DHT22;6107;49.078;8.578;2023-04-24T02:04:53;12.30;99.90
12089;DHT22;6107;49.078;8.578;2023-04-24T02:07:18;12.20;99.90
12089;DHT22;6107;49.078;8.578;2023-04-24T02:09:44;12.20;99.90
12089;DHT22;6107;49.078;8.578;2023-04-24T02:12:09;12.10;99.90
12089;DHT22;6107;49.078;8.578;2023-04-24T02:14:35;12.10;99.90
12089;DHT22;6107;49.078;8.578;2023-04-24T02:17:00;12.00;99.90
12089;DHT22;6107;49.078;8.578;2023-04-24T02:19:26;12.00;99.90
12089;DHT22;6107;49.078;8.578;2023-04-24T02:21:51;12.00;99.90
12089;DHT22;6107;49.078;8.578;2023-04-24T02:24:17;11.80;99.90
12089;DHT22;6107;49.078;8.578;2023-04-24T02:26:42;11.80;99.90
12089;DHT22;6107;49.078;8.578;2023-04-24T02:29:08;11.80;99.90
12089;DHT22;6107;49.078;8.578;2023-04-24T02:31:33;11.90;99.90
12089;DHT22;6107;49.078;8.578;2023-04-24T02:33:59;11.90;99.90
12089;DHT22;6107;49.078;8.578;2023-04-24T02:36:25;11.80;99.90
12089;DHT22;6107;49.078;8.578;2023-04-24T02:38:50;11.90;99.90
12089;DHT22;6107;49.078;8.578;2023-04-24T02:41:16;11.90;99.90
12089;DHT22;6107;49.078;8.578;2023-04-24T02:43:41;12.00;99.90
12089;DHT22;6107;49.078;8.578;2023-04-24T02:46:07;11.90;99.90
12089;DHT22;6107;49.078;8.578;2023-04-24T02:48:32;11.90;99.90
12089;DHT22;6107;49.078;8.578;2023-04-24T02:50:58;11.90;99.90
12089;DHT22;6107;49.078;8.578;2023-04-24T02:53:23;11.90;99.90
12089;DHT22;6107;49.078;8.578;2023-04-24T02:55:49;12.00;99.90
12089;DHT22;6107;49.078;8.578;2023-04-24T02:58:14;11.90;99.90
12089;DHT22;6107;49.078;8.578;2023-04-24T03:00:40;12.00;99.90
12089;DHT22;6107;49.078;8.578;2023-04-24T03:03:06;12.00;99.90
12089;DHT22;6107;49.078;8.578;2023-04-24T03:05:32;12.00;99.90
12089;DHT22;6107;49.078;8.578;2023-04-24T03:07:57;12.00;99.90
12089;DHT22;6107;49.078;8.578;2023-04-24T03:10:23;12.00;99.90
12089;DHT22;6107;49.078;8.578;2023-04-24T03:12:49;11.90;99.90
12089;DHT22;6107;49.078;8.578;2023-04-24T03:15:14;11.80;99.90
12089;DHT22;6107;49.078;8.578;2023-04-24T03:17:40;11.70;99.90
12089;DHT22;6107;49.078;8.578;2023-04-24T03:20:06;11.50;99.90
12089;DHT22;6107;49.078;8.578;2023-04-24T03:22:34;11.50;99.90
12089;DHT22;6107;49.078;8.578;2023-04-24T03:25:00;11.40;99.90
12089;DHT22;6107;49.078;8.578;2023-04-24T03:27:26;11.30;99.90
12089;DHT22;6107;49.078;8.578;2023-04-24T03:29:51;11.30;99.90
12089;DHT22;6107;49.078;8.578;2023-04-24T03:32:23;11.30;99.90
12089;DHT22;6107;49.078;8.578;2023-04-24T03:34:49;11.30;99.90
12089;DHT22;6107;49.078;8.578;2023-04-24T03:37:16;11.00;99.90
12089;DHT22;6107;49.078;8.578;2023-04-24T03:39:41;10.60;99.90
12089;DHT22;6107;49.078;8.578;2023-04-24T03:42:07;10.50;99.90
12089;DHT22;6107;49.078;8.578;2023-04-24T03:44:34;10.30;99.90
12089;DHT22;6107;49.078;8.578;2023-04-24T03:46:59;10.40;99.90
12089;DHT22;6107;49.078;8.578;2023-04-24T03:49:25;10.50;99.90
12089;DHT22;6107;49.078;8.578;2023-04-24T03:51:51;10.40;99.90
12089;DHT22;6107;49.078;8.578;2023-04-24T03:54:18;10.50;99.90
12089;DHT22;6107;49.078;8.578;2023-04-24T03:56:43;10.50;99.90
12089;DHT22;6107;49.078;8.578;2023-04-24T03:59:09;10.50;99.90
12089;DHT22;6107;49.078;8.578;2023-04-24T04:01:35;10.50;99.90
12089;DHT22;6107;49.078;8.578;2023-04-24T04:04:03;10.60;99.90
12089;DHT22;6107;49.078;8.578;2023-04-24T04:06:28;10.60;99.90
12089;DHT22;6107;49.078;8.578;2023-04-24T04:08:56;10.60;99.90
12089;DHT22;6107;49.078;8.578;2023-04-24T04:11:22;10.60;99.90
12089;DHT22;6107;49.078;8.578;2023-04-24T04:13:47;10.60;99.90
12089;DHT22;6107;49.078;8.578;2023-04-24T04:16:13;10.50;99.90
12089;DHT22;6107;49.078;8.578;2023-04-24T04:18:39;10.50;99.90
12089;DHT22;6107;49.078;8.578;2023-04-24T04:21:04;10.60;99.90
12089;DHT22;6107;49.078;8.578;2023-04-24T04:23:30;10.40;99.90
12089;DHT22;6107;49.078;8.578;2023-04-24T04:25:57;10.40;99.90
12089;DHT22;6107;49.078;8.578;2023-04-24T04:28:22;10.50;99.90
12089;DHT22;6107;49.078;8.578;2023-04-24T04:30:50;10.30;99.90
12089;DHT22;6107;49.078;8.578;2023-04-24T04:33:21;10.20;99.90
12089;DHT22;6107;49.078;8.578;2023-04-24T04:35:47;10.30;99.90
12089;DHT22;6107;49.078;8.578;2023-04-24T04:38:17;10.20;99.90
12089;DHT22;6107;49.078;8.578;2023-04-24T04:40:44;10.20;99.90
12089;DHT22;6107;49.078;8.578;2023-04-24T04:43:09;10.30;99.90
12089;DHT22;6107;49.078;8.578;2023-04-24T04:45:36;10.20;99.90
12089;DHT22;6107;49.078;8.578;2023-04-24T04:48:02;10.10;99.90
12089;DHT22;6107;49.078;8.578;2023-04-24T04:50:28;10.10;99.90
12089;DHT22;6107;49.078;8.578;2023-04-24T04:52:54;10.10;99.90
12089;DHT22;6107;49.078;8.578;2023-04-24T04:55:20;10.10;99.90
12089;DHT22;6107;49.078;8.578;2023-04-24T04:57:46;10.10;99.90
12089;DHT22;6107;49.078;8.578;2023-04-24T05:00:12;10.20;99.90
12089;DHT22;6107;49.078;8.578;2023-04-24T05:02:38;10.20;99.90
12089;DHT22;6107;49.078;8.578;2023-04-24T05:05:05;10.10;99.90
12089;DHT22;6107;49.078;8.578;2023-04-24T05:07:31;10.10;99.90
12089;DHT22;6107;49.078;8.578;2023-04-24T05:09:56;10.10;99.90
12089;DHT22;6107;49.078;8.578;2023-04-24T05:12:22;10.00;99.90
12089;DHT22;6107;49.078;8.578;2023-04-24T05:14:47;10.00;99.90
12089;DHT22;6107;49.078;8.578;2023-04-24T05:17:13;10.10;99.90
12089;DHT22;6107;49.078;8.578;2023-04-24T05:19:38;10.20;99.90
12089;DHT22;6107;49.078;8.578;2023-04-24T05:22:04;10.20;99.90
12089;DHT22;6107;49.078;8.578;2023-04-24T05:24:35;10.30;99.90
12089;DHT22;6107;49.078;8.578;2023-04-24T05:27:01;10.10;99.90
12089;DHT22;6107;49.078;8.578;2023-04-24T05:29:28;10.10;99.90
12089;DHT22;6107;49.078;8.578;2023-04-24T05:31:56;10.20;99.90
12089;DHT22;6107;49.078;8.578;2023-04-24T05:34:21;10.10;99.90
12089;DHT22;6107;49.078;8.578;2023-04-24T05:36:47;10.30;99.90
12089;DHT22;6107;49.078;8.578;2023-04-24T05:39:13;10.60;99.90
12089;DHT22;6107;49.078;8.578;2023-04-24T05:41:38;10.80;99.90
12089;DHT22;6107;49.078;8.578;2023-04-24T05:44:04;10.70;99.90
12089;DHT22;6107;49.078;8.578;2023-04-24T05:46:30;10.70;99.90
12089;DHT22;6107;49.078;8.578;2023-04-24T05:48:55;10.70;99.90
12089;DHT22;6107;49.078;8.578;2023-04-24T05:51:21;10.70;99.90
12089;DHT22;6107;49.078;8.578;2023-04-24T05:53:46;10.70;99.90
12089;DHT22;6107;49.078;8.578;2023-04-24T05:56:12;10.60;99.90
12089;DHT22;6107;49.078;8.578;2023-04-24T05:58:37;10.60;99.90
12089;DHT22;6107;49.078;8.578;2023-04-24T06:01:03;10.70;99.90
12089;DHT22;6107;49.078;8.578;2023-04-24T06:03:28;10.70;99.90
12089;DHT22;6107;49.078;8.578;2023-04-24T06:05:54;10.70;99.90
12089;DHT22;6107;49.078;8.578;2023-04-24T06:08:19;10.70;99.90
12089;DHT22;6107;49.078;8.578;2023-04-24T06:10:45;10.90;99.90
12089;DHT22;6107;49.078;8.578;2023-04-24T06:13:11;11.00;99.90
12089;DHT22;6107;49.078;8.578;2023-04-24T06:15:36;11.00;99.90
12089;DHT22;6107;49.078;8.578;2023-04-24T06:18:02;11.00;99.90
12089;DHT22;6107;49.078;8.578;2023-04-24T06:20:28;10.90;99.90
12089;DHT22;6107;49.078;8.578;2023-04-24T06:22:53;10.90;99.90
12089;DHT22;6107;49.078;8.578;2023-04-24T06:25:19;10.90;99.90
12089;DHT22;6107;49.078;8.578;2023-04-24T06:27:45;11.00;99.90
12089;DHT22;6107;49.078;8.578;2023-04-24T06:30:11;11.10;99.90
12089;DHT22;6107;49.078;8.578;2023-04-24T06:32:36;11.10;99.90
12089;DHT22;6107;49.078;8.578;2023-04-24T06:35:02;11.20;99.90
12089;DHT22;6107;49.078;8.578;2023-04-24T06:37:27;11.30;99.90
12089;DHT22;6107;49.078;8.578;2023-04-24T06:39:53;11.20;99.90
12089;DHT22;6107;49.078;8.578;2023-04-24T06:42:18;11.10;99.90
12089;DHT22;6107;49.078;8.578;2023-04-24T06:44:46;11.20;99.90
12089;DHT22;6107;49.078;8.578;2023-04-24T06:47:11;11.10;99.90
12089;DHT22;6107;49.078;8.578;2023-04-24T06:49:39;11.20;99.90
12089;DHT22;6107;49.078;8.578;2023-04-24T06:52:05;11.20;99.90
12089;DHT22;6107;49.078;8.578;2023-04-24T06:54:31;11.20;99.90
12089;DHT22;6107;49.078;8.578;2023-04-24T06:56:57;11.20;99.90
12089;DHT22;6107;49.078;8.578;2023-04-24T06:59:26;11.30;99.90
12089;DHT22;6107;49.078;8.578;2023-04-24T07:01:51;11.40;99.90
12089;DHT22;6107;49.078;8.578;2023-04-24T07:04:17;11.50;99.90
12089;DHT22;6107;49.078;8.578;2023-04-24T07:06:44;11.50;99.90
12089;DHT22;6107;49.078;8.578;2023-04-24T07:09:11;11.50;99.90
12089;DHT22;6107;49.078;8.578;2023-04-24T07:11:36;11.50;99.90
12089;DHT22;6107;49.078;8.578;2023-04-24T07:14:03;11.40;99.90
12089;DHT22;6107;49.078;8.578;2023-04-24T07:16:29;11.60;99.90
12089;DHT22;6107;49.078;8.578;2023-04-24T07:18:55;11.90;99.90
12089;DHT22;6107;49.078;8.578;2023-04-24T07:21:20;11.90;99.90
12089;DHT22;6107;49.078;8.578;2023-04-24T07:23:46;11.90;99.90
12089;DHT22;6107;49.078;8.578;2023-04-24T07:26:12;11.90;99.90
12089;DHT22;6107;49.078;8.578;2023-04-24T07:28:39;12.00;99.90
12089;DHT22;6107;49.078;8.578;2023-04-24T07:31:05;11.70;99.90
12089;DHT22;6107;49.078;8.578;2023-04-24T07:33:31;11.40;99.90
12089;DHT22;6107;49.078;8.578;2023-04-24T07:35:56;11.40;99.90
12089;DHT22;6107;49.078;8.578;2023-04-24T07:38:22;11.30;99.90
12089;DHT22;6107;49.078;8.578;2023-04-24T07:40:48;11.30;99.90
12089;DHT22;6107;49.078;8.578;2023-04-24T07:43:14;11.50;99.90
12089;DHT22;6107;49.078;8.578;2023-04-24T07:45:39;11.40;99.90
12089;DHT22;6107;49.078;8.578;2023-04-24T07:48:06;11.40;99.90
12089;DHT22;6107;49.078;8.578;2023-04-24T07:50:31;11.40;99.90
12089;DHT22;6107;49.078;8.578;2023-04-24T07:52:57;11.40;99.90
12089;DHT22;6107;49.078;8.578;2023-04-24T07:55:23;11.40;99.90
12089;DHT22;6107;49.078;8.578;2023-04-24T07:57:48;11.40;99.90
12089;DHT22;6107;49.078;8.578;2023-04-24T08:00:14;11.30;99.90
12089;DHT22;6107;49.078;8.578;2023-04-24T08:02:40;11.10;99.90
12089;DHT22;6107;49.078;8.578;2023-04-24T08:05:06;11.10;99.90
12089;DHT22;6107;49.078;8.578;2023-04-24T08:07:31;11.00;99.90
12089;DHT22;6107;49.078;8.578;2023-04-24T08:09:57;11.00;99.90
12089;DHT22;6107;49.078;8.578;2023-04-24T08:12:22;11.00;99.90
12089;DHT22;6107;49.078;8.578;2023-04-24T08:14:48;10.90;99.90
12089;DHT22;6107;49.078;8.578;2023-04-24T08:17:13;10.90;99.90
12089;DHT22;6107;49.078;8.578;2023-04-24T08:19:40;10.80;99.90
12089;DHT22;6107;49.078;8.578;2023-04-24T08:22:12;10.70;99.90
12089;DHT22;6107;49.078;8.578;2023-04-24T08:24:38;10.70;99.90
12089;DHT22;6107;49.078;8.578;2023-04-24T08:27:04;10.80;99.90
12089;DHT22;6107;49.078;8.578;2023-04-24T08:29:29;11.10;99.90
12089;DHT22;6107;49.078;8.578;2023-04-24T08:31:55;11.20;99.90
12089;DHT22;6107;49.078;8.578;2023-04-24T08:34:21;11.50;99.90
12089;DHT22;6107;49.078;8.578;2023-04-24T08:36:46;11.40;99.90
12089;DHT22;6107;49.078;8.578;2023-04-24T08:39:12;11.80;99.90
12089;DHT22;6107;49.078;8.578;2023-04-24T08:41:38;11.60;99.90
12089;DHT22;6107;49.078;8.578;2023-04-24T08:44:04;11.50;99.90
12089;DHT22;6107;49.078;8.578;2023-04-24T08:46:30;11.60;99.90
12089;DHT22;6107;49.078;8.578;2023-04-24T08:48:56;11.50;99.90
12089;DHT22;6107;49.078;8.578;2023-04-24T08:51:23;11.60;99.90
12089;DHT22;6107;49.078;8.578;2023-04-24T08:53:51;11.70;99.90
12089;DHT22;6107;49.078;8.578;2023-04-24T08:56:19;11.60;99.90
12089;DHT22;6107;49.078;8.578;2023-04-24T08:58:45;11.60;99.90
12089;DHT22;6107;49.078;8.578;2023-04-24T09:01:12;11.80;99.90
12089;DHT22;6107;49.078;8.578;2023-04-24T09:03:38;12.20;99.90
12089;DHT22;6107;49.078;8.578;2023-04-24T09:06:06;12.60;99.90
12089;DHT22;6107;49.078;8.578;2023-04-24T09:08:32;12.50;99.90
12089;DHT22;6107;49.078;8.578;2023-04-24T09:10:58;12.40;99.90
12089;DHT22;6107;49.078;8.578;2023-04-24T09:13:27;12.50;99.90
12089;DHT22;6107;49.078;8.578;2023-04-24T09:15:52;12.40;99.90
12089;DHT22;6107;49.078;8.578;2023-04-24T09:18:19;12.40;99.90
12089;DHT22;6107;49.078;8.578;2023-04-24T09:21:07;12.40;99.90
12089;DHT22;6107;49.078;8.578;2023-04-24T09:23:33;12.10;99.90
12089;DHT22;6107;49.078;8.578;2023-04-24T09:26:00;12.00;99.90
12089;DHT22;6107;49.078;8.578;2023-04-24T09:28:37;11.90;99.90
12089;DHT22;6107;49.078;8.578;2023-04-24T09:31:17;11.70;99.90
12089;DHT22;6107;49.078;8.578;2023-04-24T09:33:58;11.50;99.90
12089;DHT22;6107;49.078;8.578;2023-04-24T09:36:35;11.40;99.90
12089;DHT22;6107;49.078;8.578;2023-04-24T09:39:06;11.40;99.90
12089;DHT22;6107;49.078;8.578;2023-04-24T09:41:33;11.40;99.90
12089;DHT22;6107;49.078;8.578;2023-04-24T09:44:12;11.30;99.90
12089;DHT22;6107;49.078;8.578;2023-04-24T09:46:38;11.10;99.90
12089;DHT22;6107;49.078;8.578;2023-04-24T09:49:08;11.10;99.90
12089;DHT22;6107;49.078;8.578;2023-04-24T09:51:36;11.20;99.90
12089;DHT22;6107;49.078;8.578;2023-04-24T09:54:04;11.20;99.90
12089;DHT22;6107;49.078;8.578;2023-04-24T09:56:33;11.20;99.90
12089;DHT22;6107;49.078;8.578;2023-04-24T09:59:08;11.10;99.90
12089;DHT22;6107;49.078;8.578;2023-04-24T10:01:34;11.20;99.90
12089;DHT22;6107;49.078;8.578;2023-04-24T10:03:59;11.30;99.90
12089;DHT22;6107;49.078;8.578;2023-04-24T10:06:33;11.70;99.90
12089;DHT22;6107;49.078;8.578;2023-04-24T10:08:59;11.90;99.90
12089;DHT22;6107;49.078;8.578;2023-04-24T10:11:28;12.00;99.90
12089;DHT22;6107;49.078;8.578;2023-04-24T10:13:54;11.90;99.90
12089;DHT22;6107;49.078;8.578;2023-04-24T10:16:21;11.90;99.90
12089;DHT22;6107;49.078;8.578;2023-04-24T10:18:48;11.90;99.90
12089;DHT22;6107;49.078;8.578;2023-04-24T10:21:15;11.90;99.90
12089;DHT22;6107;49.078;8.578;2023-04-24T10:23:41;12.00;99.90
12089;DHT22;6107;49.078;8.578;2023-04-24T10:26:09;12.20;99.90
12089;DHT22;6107;49.078;8.578;2023-04-24T10:28:36;12.30;99.90
12089;DHT22;6107;49.078;8.578;2023-04-24T10:31:02;11.90;99.90
12089;DHT22;6107;49.078;8.578;2023-04-24T10:33:29;12.00;99.90
12089;DHT22;6107;49.078;8.578;2023-04-24T10:35:56;11.80;99.90
12089;DHT22;6107;49.078;8.578;2023-04-24T10:38:25;11.70;99.90
12089;DHT22;6107;49.078;8.578;2023-04-24T10:41:07;11.80;99.90
12089;DHT22;6107;49.078;8.578;2023-04-24T10:43:33;11.60;99.90
12089;DHT22;6107;49.078;8.578;2023-04-24T10:46:04;11.60;99.90
12089;DHT22;6107;49.078;8.578;2023-04-24T10:48:31;11.40;99.90
12089;DHT22;6107;49.078;8.578;2023-04-24T10:50:57;11.40;99.90
12089;DHT22;6107;49.078;8.578;2023-04-24T10:53:27;11.40;99.90
12089;DHT22;6107;49.078;8.578;2023-04-24T10:56:04;11.50;99.90
12089;DHT22;6107;49.078;8.578;2023-04-24T10:58:41;11.50;99.90
12089;DHT22;6107;49.078;8.578;2023-04-24T11:01:26;11.60;99.90
12089;DHT22;6107;49.078;8.578;2023-04-24T11:03:57;11.60;99.90
12089;DHT22;6107;49.078;8.578;2023-04-24T11:06:36;11.80;99.90
12089;DHT22;6107;49.078;8.578;2023-04-24T11:09:07;11.80;99.90
12089;DHT22;6107;49.078;8.578;2023-04-24T11:11:34;11.90;99.90
12089;DHT22;6107;49.078;8.578;2023-04-24T11:21:59;12.00;99.90
12089;DHT22;6107;49.078;8.578;2023-04-24T11:37:33;11.70;99.90
12089;DHT22;6107;49.078;8.578;2023-04-24T11:39:59;11.80;99.90
12089;DHT22;6107;49.078;8.578;2023-04-24T11:42:25;11.40;99.90
12089;DHT22;6107;49.078;8.578;2023-04-24T11:44:55;11.50;99.90
12089;DHT22;6107;49.078;8.578;2023-04-24T11:47:28;11.40;99.90
12089;DHT22;6107;49.078;8.578;2023-04-24T11:49:54;11.60;99.90
12089;DHT22;6107;49.078;8.578;2023-04-24T11:52:19;11.50;99.90
12089;DHT22;6107;49.078;8.578;2023-04-24T11:54:49;11.80;99.90
12089;DHT22;6107;49.078;8.578;2023-04-24T11:57:21;11.90;99.90
12089;DHT22;6107;49.078;8.578;2023-04-24T11:59:48;11.90;99.90
12089;DHT22;6107;49.078;8.578;2023-04-24T12:02:24;11.90;99.90
12089;DHT22;6107;49.078;8.578;2023-04-24T12:04:50;11.80;99.90
12089;DHT22;6107;49.078;8.578;2023-04-24T12:07:16;11.80;99.90
12089;DHT22;6107;49.078;8.578;2023-04-24T12:09:43;12.10;99.90
12089;DHT22;6107;49.078;8.578;2023-04-24T12:12:11;12.00;99.90
12089;DHT22;6107;49.078;8.578;2023-04-24T12:14:44;12.20;99.90
12089;DHT22;6107;49.078;8.578;2023-04-24T12:17:10;12.40;99.90
12089;DHT22;6107;49.078;8.578;2023-04-24T12:19:36;12.90;99.90
12089;DHT22;6107;49.078;8.578;2023-04-24T12:22:04;12.60;99.90
12089;DHT22;6107;49.078;8.578;2023-04-24T12:24:31;12.40;99.90
12089;DHT22;6107;49.078;8.578;2023-04-24T12:26:58;12.40;99.90
12089;DHT22;6107;49.078;8.578;2023-04-24T12:29:24;12.50;99.90
12089;DHT22;6107;49.078;8.578;2023-04-24T12:31:54;12.50;99.90
12089;DHT22;6107;49.078;8.578;2023-04-24T12:34:25;12.70;99.90
12089;DHT22;6107;49.078;8.578;2023-04-24T12:36:51;12.50;99.90
12089;DHT22;6107;49.078;8.578;2023-04-24T12:39:18;12.60;99.90
12089;DHT22;6107;49.078;8.578;2023-04-24T12:41:59;12.50;99.90
12089;DHT22;6107;49.078;8.578;2023-04-24T12:44:33;12.50;99.90
12089;DHT22;6107;49.078;8.578;2023-04-24T12:47:01;12.60;99.90
12089;DHT22;6107;49.078;8.578;2023-04-24T12:49:27;12.40;99.90
12089;DHT22;6107;49.078;8.578;2023-04-24T12:51:53;12.60;99.90
12089;DHT22;6107;49.078;8.578;2023-04-24T12:54:19;12.90;99.90
12089;DHT22;6107;49.078;8.578;2023-04-24T12:56:44;13.20;99.90
12089;DHT22;6107;49.078;8.578;2023-04-24T12:59:10;13.00;99.90
12089;DHT22;6107;49.078;8.578;2023-04-24T13:01:35;13.40;99.90
12089;DHT22;6107;49.078;8.578;2023-04-24T13:04:01;13.20;99.90
12089;DHT22;6107;49.078;8.578;2023-04-24T13:06:27;13.20;99.90
12089;DHT22;6107;49.078;8.578;2023-04-24T13:08:52;13.30;99.90
12089;DHT22;6107;49.078;8.578;2023-04-24T13:11:20;13.30;99.90
12089;DHT22;6107;49.078;8.578;2023-04-24T13:13:47;13.20;99.90
12089;DHT22;6107;49.078;8.578;2023-04-24T13:16:12;12.90;99.90
12089;DHT22;6107;49.078;8.578;2023-04-24T13:18:38;13.00;99.90
12089;DHT22;6107;49.078;8.578;2023-04-24T13:21:03;13.20;99.90
12089;DHT22;6107;49.078;8.578;2023-04-24T13:23:29;13.30;99.90
12089;DHT22;6107;49.078;8.578;2023-04-24T13:25:54;13.10;99.90
12089;DHT22;6107;49.078;8.578;2023-04-24T13:28:23;12.80;99.90
12089;DHT22;6107;49.078;8.578;2023-04-24T13:30:48;13.00;99.90
12089;DHT22;6107;49.078;8.578;2023-04-24T13:33:14;13.20;99.90
12089;DHT22;6107;49.078;8.578;2023-04-24T13:35:39;13.10;99.90
12089;DHT22;6107;49.078;8.578;2023-04-24T13:38:05;13.40;99.90
12089;DHT22;6107;49.078;8.578;2023-04-24T13:40:31;13.20;99.90
12089;DHT22;6107;49.078;8.578;2023-04-24T13:42:57;13.40;99.90
12089;DHT22;6107;49.078;8.578;2023-04-24T13:45:23;13.30;99.90
12089;DHT22;6107;49.078;8.578;2023-04-24T13:47:48;13.20;99.90
12089;DHT22;6107;49.078;8.578;2023-04-24T13:50:14;13.20;99.90
12089;DHT22;6107;49.078;8.578;2023-04-24T13:52:40;13.20;99.90
12089;DHT22;6107;49.078;8.578;2023-04-24T13:55:06;13.00;99.90
12089;DHT22;6107;49.078;8.578;2023-04-24T13:57:31;13.00;99.90
12089;DHT22;6107;49.078;8.578;2023-04-24T13:59:58;13.00;99.90
12089;DHT22;6107;49.078;8.578;2023-04-24T14:02:27;13.00;99.90
12089;DHT22;6107;49.078;8.578;2023-04-24T14:04:52;12.90;99.90
12089;DHT22;6107;49.078;8.578;2023-04-24T14:07:18;13.00;99.90
12089;DHT22;6107;49.078;8.578;2023-04-24T14:09:43;13.10;99.90
12089;DHT22;6107;49.078;8.578;2023-04-24T14:12:09;13.40;99.90
12089;DHT22;6107;49.078;8.578;2023-04-24T14:14:34;13.30;99.90
12089;DHT22;6107;49.078;8.578;2023-04-24T14:17:00;13.30;99.90
12089;DHT22;6107;49.078;8.578;2023-04-24T14:19:26;13.40;99.90
12089;DHT22;6107;49.078;8.578;2023-04-24T14:21:51;13.40;99.90
12089;DHT22;6107;49.078;8.578;2023-04-24T14:24:17;13.60;99.90
12089;DHT22;6107;49.078;8.578;2023-04-24T14:26:42;14.20;99.90
12089;DHT22;6107;49.078;8.578;2023-04-24T14:29:08;14.20;99.90
12089;DHT22;6107;49.078;8.578;2023-04-24T14:31:33;13.80;99.90
12089;DHT22;6107;49.078;8.578;2023-04-24T14:33:59;13.80;99.90
12089;DHT22;6107;49.078;8.578;2023-04-24T14:36:24;13.80;99.90
12089;DHT22;6107;49.078;8.578;2023-04-24T14:38:50;13.70;99.90
12089;DHT22;6107;49.078;8.578;2023-04-24T14:41:15;14.40;99.90
12089;DHT22;6107;49.078;8.578;2023-04-24T14:43:41;14.50;99.90
12089;DHT22;6107;49.078;8.578;2023-04-24T14:46:07;14.30;99.90
12089;DHT22;6107;49.078;8.578;2023-04-24T14:48:32;14.70;99.90
12089;DHT22;6107;49.078;8.578;2023-04-24T14:50:58;14.30;99.90
12089;DHT22;6107;49.078;8.578;2023-04-24T14:53:23;14.60;99.90
12089;DHT22;6107;49.078;8.578;2023-04-24T14:55:49;14.70;99.90
12089;DHT22;6107;49.078;8.578;2023-04-24T14:58:14;14.30;99.90
12089;DHT22;6107;49.078;8.578;2023-04-24T15:00:40;14.20;99.90
12089;DHT22;6107;49.078;8.578;2023-04-24T15:03:05;13.90;99.90
12089;DHT22;6107;49.078;8.578;2023-04-24T15:05:31;14.10;99.90
12089;DHT22;6107;49.078;8.578;2023-04-24T15:07:57;14.10;99.90
12089;DHT22;6107;49.078;8.578;2023-04-24T15:10:22;14.60;99.90
12089;DHT22;6107;49.078;8.578;2023-04-24T15:12:49;15.00;99.90
12089;DHT22;6107;49.078;8.578;2023-04-24T15:15:15;15.80;99.90
12089;DHT22;6107;49.078;8.578;2023-04-24T15:17:40;15.10;99.90
12089;DHT22;6107;49.078;8.578;2023-04-24T15:20:06;15.40;99.90
12089;DHT22;6107;49.078;8.578;2023-04-24T15:22:32;15.40;99.90
12089;DHT22;6107;49.078;8.578;2023-04-24T15:24:58;14.80;99.90
12089;DHT22;6107;49.078;8.578;2023-04-24T15:27:24;15.30;99.90
12089;DHT22;6107;49.078;8.578;2023-04-24T15:29:49;15.10;99.90
12089;DHT22;6107;49.078;8.578;2023-04-24T15:32:15;15.40;99.90
12089;DHT22;6107;49.078;8.578;2023-04-24T15:34:40;15.40;99.90
12089;DHT22;6107;49.078;8.578;2023-04-24T15:37:06;15.00;99.90
12089;DHT22;6107;49.078;8.578;2023-04-24T15:39:31;15.00;99.90
12089;DHT22;6107;49.078;8.578;2023-04-24T15:41:57;14.40;99.90
12089;DHT22;6107;49.078;8.578;2023-04-24T15:44:23;13.80;99.90
12089;DHT22;6107;49.078;8.578;2023-04-24T15:46:48;13.60;99.90
12089;DHT22;6107;49.078;8.578;2023-04-24T15:49:14;13.90;99.90
12089;DHT22;6107;49.078;8.578;2023-04-24T15:51:39;14.00;99.90
12089;DHT22;6107;49.078;8.578;2023-04-24T15:54:05;14.10;99.90
12089;DHT22;6107;49.078;8.578;2023-04-24T15:56:30;13.90;99.90
12089;DHT22;6107;49.078;8.578;2023-04-24T15:58:57;13.50;99.90
12089;DHT22;6107;49.078;8.578;2023-04-24T16:01:22;14.00;99.90